createdAt,value
2019-01-24T00:03:54.132Z,55.03
2019-01-24T00:06:34.739Z,53.65
2019-01-24T00:09:15.287Z,51.42
2019-01-24T00:11:56.048Z,36.15
2019-01-24T00:14:36.904Z,39.90
2019-01-24T00:17:17.566Z,37.25
2019-01-24T00:19:58.131Z,20.92
2019-01-24T00:22:38.743Z,33.10
2019-01-24T00:25:19.487Z,33.05
2019-01-24T00:28:00.396Z,38.75
2019-01-24T00:30:41.185Z,37.33
2019-01-24T00:33:21.987Z,37.40
2019-01-24T00:36:02.739Z,59.70
2019-01-24T00:38:43.461Z,43.60
2019-01-24T00:41:24.226Z,25.17
2019-01-24T00:44:05.028Z,33.28
2019-01-24T00:46:45.587Z,38.13
2019-01-24T00:49:26.067Z,37.08
2019-01-24T00:52:06.891Z,41.92
2019-01-24T00:54:47.859Z,43.73
2019-01-24T00:57:28.623Z,36.88
2019-01-24T01:00:09.371Z,36.90
2019-01-24T01:02:50.063Z,48.60
2019-01-24T01:05:30.735Z,40.95
2019-01-24T01:08:11.607Z,36.68
2019-01-24T01:10:52.492Z,39.58
2019-01-24T01:13:33.283Z,51.15
2019-01-24T01:16:14.099Z,48.00
2019-01-24T01:18:54.836Z,45.33
2019-01-24T01:21:35.604Z,38.13
2019-01-24T01:24:16.189Z,41.28
2019-01-24T01:26:56.895Z,63.28
2019-01-24T01:29:37.623Z,45.95
2019-01-24T01:32:18.355Z,50.38
2019-01-24T01:34:59.211Z,57.08
2019-01-24T01:37:39.812Z,53.05
2019-01-24T01:40:20.246Z,41.63
2019-01-24T01:43:01.055Z,49.33
2019-01-24T01:45:41.507Z,49.00
2019-01-24T01:48:22.365Z,46.70
2019-01-24T01:51:02.987Z,47.10
2019-01-24T01:53:43.598Z,48.78
2019-01-24T01:56:24.273Z,46.58
2019-01-24T01:59:04.675Z,57.10
2019-01-24T02:01:45.423Z,48.73
2019-01-24T02:04:26.431Z,58.40
2019-01-24T02:07:07.155Z,58.13
2019-01-24T02:09:47.771Z,34.70
2019-01-24T02:15:41.735Z,51.35
2019-01-24T02:18:22.495Z,45.12
2019-01-24T02:21:03.391Z,34.78
2019-01-24T02:23:44.103Z,49.73
2019-01-24T02:26:25.373Z,49.83
2019-01-24T02:29:05.925Z,43.58
2019-01-24T02:31:46.565Z,35.70
2019-01-24T02:34:27.178Z,45.10
2019-01-24T02:37:08.491Z,44.45
2019-01-24T02:39:49.107Z,45.52
2019-01-24T02:42:29.951Z,38.20
2019-01-24T02:45:10.566Z,52.98
2019-01-24T02:47:51.288Z,47.30
2019-01-24T02:50:31.752Z,37.40
2019-01-24T02:53:13.943Z,33.42
2019-01-24T02:55:55.210Z,45.55
2019-01-24T02:58:35.717Z,33.88
2019-01-24T03:01:16.372Z,43.63
2019-01-24T03:03:57.092Z,42.88
2019-01-24T03:06:37.787Z,37.80
2019-01-24T03:09:18.850Z,38.25
2019-01-24T03:11:59.590Z,44.55
2019-01-24T03:14:40.488Z,57.10
2019-01-24T03:17:21.174Z,47.20
2019-01-24T03:20:02.045Z,52.98
2019-01-24T03:22:42.665Z,53.85
2019-01-24T03:25:23.477Z,58.95
2019-01-24T03:28:04.291Z,53.80
2019-01-24T03:30:45.059Z,56.02
2019-01-24T03:33:25.912Z,47.13
2019-01-24T03:36:06.628Z,50.25
2019-01-24T03:38:47.220Z,56.68
2019-01-24T03:41:27.851Z,44.10
2019-01-24T03:44:08.456Z,46.48
2019-01-24T03:46:49.143Z,50.48
2019-01-24T03:49:29.983Z,50.75
2019-01-24T03:52:10.698Z,47.55
2019-01-24T03:54:51.335Z,58.80
2019-01-24T03:57:32.260Z,64.90
2019-01-24T04:00:12.711Z,55.73
2019-01-24T04:02:53.403Z,70.95
2019-01-24T04:05:34.104Z,52.35
2019-01-24T04:08:14.816Z,58.55
2019-01-24T04:10:56.700Z,56.10
2019-01-24T04:13:38.012Z,59.65
2019-01-24T04:16:18.348Z,64.97
2019-01-24T04:18:59.002Z,61.08
2019-01-24T04:21:39.793Z,57.73
2019-01-24T04:24:20.405Z,60.60
2019-01-24T04:27:01.064Z,61.13
2019-01-24T04:29:41.712Z,74.53
2019-01-24T04:32:22.159Z,95.12
2019-01-24T04:35:02.949Z,114.92
2019-01-24T04:37:43.555Z,111.80
2019-01-24T04:40:24.222Z,57.83
2019-01-24T04:43:04.847Z,70.90
2019-01-24T04:45:45.464Z,60.03
2019-01-24T04:48:27.904Z,73.75
2019-01-24T04:51:08.839Z,68.12
2019-01-24T04:53:49.570Z,101.53
2019-01-24T04:56:30.261Z,62.75
2019-01-24T04:59:11.374Z,72.12
2019-01-24T05:01:51.967Z,52.55
2019-01-24T05:04:20.759Z,54.53
2019-01-24T05:07:01.968Z,54.45
2019-01-24T05:09:42.647Z,45.43
2019-01-24T05:12:23.468Z,39.00
2019-01-24T05:15:02.717Z,43.60
2019-01-24T05:17:50.739Z,44.05
2019-01-24T05:20:38.827Z,40.40
2019-01-24T05:23:26.840Z,50.55
2019-01-24T05:26:14.972Z,69.05
2019-01-24T05:29:03.021Z,49.23
2019-01-24T05:31:51.036Z,45.63
2019-01-24T05:34:39.043Z,31.17
2019-01-24T05:37:27.139Z,29.30
2019-01-24T05:40:15.218Z,47.48
2019-01-24T05:43:03.310Z,54.35
2019-01-24T05:45:51.332Z,42.10
2019-01-24T05:48:39.357Z,41.70
2019-01-24T05:51:27.523Z,51.53
2019-01-24T05:54:15.596Z,40.60
2019-01-24T05:57:03.625Z,45.20
2019-01-24T05:59:51.642Z,38.65
2019-01-24T06:02:39.658Z,43.05
2019-01-24T06:05:27.654Z,54.98
2019-01-24T06:08:08.365Z,52.73
2019-01-24T06:10:48.959Z,41.95
2019-01-24T06:13:29.684Z,49.67
2019-01-24T06:16:10.287Z,43.08
2019-01-24T06:18:50.972Z,31.57
2019-01-24T06:21:31.687Z,38.95
2019-01-24T06:24:12.593Z,58.78
2019-01-24T06:26:53.491Z,53.80
2019-01-24T06:29:34.012Z,32.00
2019-01-24T06:32:15.271Z,43.58
2019-01-24T06:34:56.054Z,40.35
2019-01-24T06:37:36.448Z,37.85
2019-01-24T06:40:17.089Z,40.75
2019-01-24T06:42:57.792Z,44.38
2019-01-24T06:45:38.419Z,36.75
2019-01-24T06:48:19.219Z,41.48
2019-01-24T06:50:59.989Z,41.08
2019-01-24T06:53:40.699Z,44.63
2019-01-24T06:56:21.424Z,55.67
2019-01-24T06:59:02.103Z,38.48
2019-01-24T07:01:42.659Z,44.90
2019-01-24T07:04:23.304Z,31.57
2019-01-24T07:07:03.862Z,42.58
2019-01-24T07:09:44.464Z,42.67
2019-01-24T07:12:25.146Z,41.05
2019-01-24T07:15:05.888Z,40.80
2019-01-24T07:17:46.526Z,40.10
2019-01-24T07:20:27.454Z,40.88
2019-01-24T07:23:08.015Z,42.10
2019-01-24T07:25:49.022Z,37.25
2019-01-24T07:28:29.331Z,41.88
2019-01-24T07:31:10.075Z,33.73
2019-01-24T07:33:50.735Z,34.98
2019-01-24T07:36:31.472Z,35.35
2019-01-24T07:39:12.046Z,37.28
2019-01-24T07:41:53.092Z,36.23
2019-01-24T07:44:34.276Z,41.90
2019-01-24T07:47:14.727Z,47.45
2019-01-24T07:49:55.204Z,49.25
2019-01-24T07:52:34.397Z,51.28
2019-01-24T07:55:22.483Z,46.18
2019-01-24T07:58:10.591Z,46.10
2019-01-24T08:00:58.587Z,48.28
2019-01-24T08:03:46.615Z,41.95
2019-01-24T08:06:27.366Z,44.53
2019-01-24T08:09:07.942Z,49.08
2019-01-24T08:11:48.850Z,52.93
2019-01-24T08:14:29.548Z,40.33
2019-01-24T08:17:10.353Z,45.65
2019-01-24T08:19:52.394Z,45.40
2019-01-24T08:22:33.068Z,47.35
2019-01-24T08:25:14.118Z,44.48
2019-01-24T08:27:54.712Z,40.90
2019-01-24T08:30:35.448Z,48.80
2019-01-24T08:33:16.392Z,40.38
2019-01-24T08:35:56.975Z,32.55
2019-01-24T08:38:37.715Z,51.73
2019-01-24T08:41:18.511Z,34.03
2019-01-24T08:43:59.387Z,46.28
2019-01-24T08:46:40.105Z,41.98
2019-01-24T08:49:20.576Z,42.60
2019-01-24T08:52:02.512Z,35.63
2019-01-24T08:54:43.792Z,54.40
2019-01-24T08:57:24.557Z,34.40
2019-01-24T09:00:05.117Z,38.78
2019-01-24T09:02:45.586Z,32.03
2019-01-24T09:05:26.601Z,32.60
2019-01-24T09:08:07.219Z,36.30
2019-01-24T09:10:47.931Z,33.38
2019-01-24T09:13:29.181Z,32.95
2019-01-24T09:16:09.780Z,33.58
2019-01-24T09:18:50.316Z,34.25
2019-01-24T09:21:30.727Z,29.45
2019-01-24T09:24:11.427Z,34.75
2019-01-24T09:26:51.992Z,28.20
2019-01-24T09:29:32.475Z,32.20
2019-01-24T09:32:13.042Z,31.15
2019-01-24T09:34:53.763Z,31.07
2019-01-24T09:37:34.484Z,34.10
2019-01-24T09:40:14.992Z,32.45
2019-01-24T09:42:55.475Z,32.28
2019-01-24T09:45:36.141Z,29.40
2019-01-24T09:48:17.459Z,29.98
2019-01-24T09:50:58.363Z,33.70
2019-01-24T09:53:39.030Z,30.00
2019-01-24T09:56:19.912Z,33.02
2019-01-24T09:59:00.772Z,32.38
2019-01-24T10:01:42.043Z,28.47
2019-01-24T10:04:22.767Z,31.37
2019-01-24T10:07:03.744Z,29.72
2019-01-24T10:09:44.219Z,29.72
2019-01-24T10:12:25.039Z,31.30
2019-01-24T10:15:05.647Z,33.83
2019-01-24T10:17:46.326Z,32.53
2019-01-24T10:20:26.852Z,32.00
2019-01-24T10:23:07.769Z,31.52
2019-01-24T10:25:48.211Z,35.05
2019-01-24T10:28:28.891Z,37.03
2019-01-24T10:31:09.415Z,38.25
2019-01-24T10:33:50.299Z,34.30
2019-01-24T10:36:31.015Z,33.85
2019-01-24T10:39:11.744Z,35.73
2019-01-24T10:41:52.095Z,33.10
2019-01-24T10:44:32.875Z,33.83
2019-01-24T10:47:13.658Z,34.40
2019-01-24T10:49:54.291Z,36.13
2019-01-24T10:52:34.816Z,35.90
2019-01-24T10:55:15.625Z,30.20
2019-01-24T10:57:56.172Z,35.35
2019-01-24T11:00:36.867Z,36.15
2019-01-24T11:03:17.504Z,31.25
2019-01-24T11:05:58.265Z,30.30
2019-01-24T11:08:39.009Z,32.93
2019-01-24T11:11:19.767Z,34.30
2019-01-24T11:14:00.555Z,31.73
2019-01-24T11:16:41.306Z,33.58
2019-01-24T11:19:21.822Z,30.48
2019-01-24T11:22:02.592Z,28.90
2019-01-24T11:24:43.465Z,30.50
2019-01-24T11:27:24.063Z,29.85
2019-01-24T11:30:04.953Z,30.45
2019-01-24T11:32:45.752Z,29.80
2019-01-24T11:35:26.765Z,28.32
2019-01-24T11:38:07.370Z,33.48
2019-01-24T11:40:47.975Z,29.82
2019-01-24T11:43:28.403Z,28.27
2019-01-24T11:46:09.037Z,31.27
2019-01-24T11:48:49.538Z,27.10
2019-01-24T11:51:30.176Z,29.85
2019-01-24T11:54:11.025Z,30.88
2019-01-24T11:56:51.983Z,28.52
2019-01-24T11:59:32.600Z,30.88
2019-01-24T12:02:13.515Z,28.62
2019-01-24T12:04:54.192Z,36.70
2019-01-24T12:07:34.591Z,33.02
2019-01-24T12:10:15.310Z,30.30
2019-01-24T12:12:56.479Z,26.75
2019-01-24T12:15:37.372Z,29.50
2019-01-24T12:18:17.956Z,27.95
2019-01-24T12:20:58.643Z,31.48
2019-01-24T12:23:39.003Z,31.65
2019-01-24T12:26:19.866Z,27.90
2019-01-24T12:29:00.611Z,27.77
2019-01-24T12:31:41.433Z,28.92
2019-01-24T12:34:22.168Z,27.05
2019-01-24T12:37:02.663Z,25.20
2019-01-24T12:39:43.388Z,29.20
2019-01-24T12:42:23.771Z,27.75
2019-01-24T12:45:04.765Z,34.18
2019-01-24T12:47:45.826Z,31.70
2019-01-24T12:50:26.503Z,28.57
2019-01-24T12:53:07.086Z,28.47
2019-01-24T12:55:47.699Z,27.95
2019-01-24T12:58:28.631Z,33.18
2019-01-24T13:01:09.218Z,33.85
2019-01-24T13:03:50.000Z,27.77
2019-01-24T13:06:30.535Z,42.10
2019-01-24T13:09:11.279Z,40.50
2019-01-24T13:11:51.911Z,42.80
2019-01-24T13:14:32.579Z,29.87
2019-01-24T13:17:13.147Z,27.17
2019-01-24T13:19:53.796Z,28.50
2019-01-24T13:22:34.359Z,27.62
2019-01-24T13:25:14.972Z,32.25
2019-01-24T13:27:55.639Z,32.53
2019-01-24T13:30:36.331Z,29.85
2019-01-24T13:33:17.032Z,38.20
2019-01-24T13:35:57.503Z,38.48
2019-01-24T13:38:38.095Z,47.65
2019-01-24T13:41:18.719Z,43.50
2019-01-24T13:43:59.337Z,42.40
2019-01-24T13:46:40.616Z,43.50
2019-01-24T13:49:21.379Z,48.25
2019-01-24T13:52:01.997Z,42.48
2019-01-24T13:54:42.477Z,45.80
2019-01-24T13:57:22.919Z,41.65
2019-01-24T14:00:03.622Z,48.10
2019-01-24T14:02:44.108Z,41.68
2019-01-24T14:05:24.644Z,36.80
2019-01-24T14:08:06.243Z,39.18
2019-01-24T14:10:47.392Z,41.10
2019-01-24T14:13:28.309Z,37.55
2019-01-24T14:16:08.615Z,42.50
2019-01-24T14:18:49.271Z,44.53
2019-01-24T14:21:29.660Z,43.80
2019-01-24T14:24:10.032Z,46.40
2019-01-24T14:26:50.780Z,45.25
2019-01-24T14:29:31.984Z,49.25
2019-01-24T14:32:12.943Z,42.43
2019-01-24T14:34:53.900Z,42.20
2019-01-24T14:37:39.725Z,41.53
2019-01-24T14:40:17.280Z,46.05
2019-01-24T14:42:57.696Z,46.58
2019-01-24T14:45:38.347Z,44.30
2019-01-24T14:48:18.872Z,44.93
2019-01-24T14:51:01.182Z,42.05
2019-01-24T14:53:41.691Z,50.03
2019-01-24T14:56:22.072Z,49.08
2019-01-24T14:59:02.451Z,46.80
2019-01-24T15:01:43.248Z,44.53
2019-01-24T15:04:23.984Z,44.42
2019-01-24T15:07:04.695Z,44.83
2019-01-24T15:09:45.223Z,44.60
2019-01-24T15:12:26.007Z,50.20
2019-01-24T15:15:05.874Z,44.45
2019-01-24T15:17:53.947Z,44.98
2019-01-24T15:20:42.019Z,44.15
2019-01-24T15:23:30.073Z,38.78
2019-01-24T15:26:18.119Z,47.40
2019-01-24T15:29:06.215Z,46.80
2019-01-24T15:31:54.214Z,45.70
2019-01-24T15:34:42.235Z,44.05
2019-01-24T15:37:30.307Z,41.75
2019-01-24T15:40:19.537Z,43.10
2019-01-24T15:43:07.610Z,47.05
2019-01-24T15:46:14.691Z,46.28
2019-01-24T15:49:02.751Z,47.23
2019-01-24T15:51:50.751Z,45.43
2019-01-24T15:54:38.763Z,46.53
2019-01-24T15:57:26.785Z,44.98
2019-01-24T16:00:18.871Z,44.65
2019-01-24T16:03:07.135Z,45.33
2019-01-24T16:05:55.206Z,48.65
2019-01-24T16:08:35.927Z,46.90
2019-01-24T16:11:16.525Z,52.20
2019-01-24T16:13:58.163Z,54.60
2019-01-24T16:16:37.323Z,56.48
2019-01-24T16:19:25.341Z,50.40
2019-01-24T16:22:13.351Z,46.85
2019-01-24T16:25:01.368Z,51.18
2019-01-24T16:27:49.371Z,46.33
2019-01-24T16:30:37.671Z,50.20
2019-01-24T16:33:25.748Z,49.40
2019-01-24T16:36:13.759Z,51.88
2019-01-24T16:39:01.795Z,47.43
2019-01-24T16:41:49.799Z,51.13
2019-01-24T16:44:37.808Z,47.15
2019-01-24T16:47:25.810Z,50.83
2019-01-24T16:50:14.015Z,43.95
2019-01-24T16:53:02.017Z,47.90
2019-01-24T16:55:50.102Z,43.33
2019-01-24T16:58:38.110Z,44.33
2019-01-24T17:01:26.127Z,45.25
2019-01-24T17:04:14.139Z,44.38
2019-01-24T17:06:55.302Z,45.63
2019-01-24T17:09:35.987Z,47.33
2019-01-24T17:12:16.485Z,46.02
2019-01-24T17:14:57.274Z,48.15
2019-01-24T17:17:37.748Z,47.08
2019-01-24T17:20:18.811Z,44.03
2019-01-24T17:22:59.536Z,47.03
2019-01-24T17:25:39.939Z,52.75
2019-01-24T17:28:20.536Z,46.85
2019-01-24T17:31:00.920Z,51.23
2019-01-24T17:33:41.621Z,47.45
2019-01-24T17:36:22.099Z,44.18
2019-01-24T17:39:04.195Z,48.55
2019-01-24T17:41:44.647Z,46.80
2019-01-24T17:44:25.278Z,52.23
2019-01-24T17:47:06.439Z,52.25
2019-01-24T17:49:47.185Z,50.40
2019-01-24T17:52:27.692Z,46.00
2019-01-24T17:55:09.963Z,52.10
2019-01-24T17:57:50.583Z,52.70
2019-01-24T18:00:34.086Z,51.02
2019-01-24T18:03:14.848Z,46.58
2019-01-24T18:05:55.982Z,48.25
2019-01-24T18:08:36.747Z,46.60
2019-01-24T18:11:17.549Z,49.23
2019-01-24T18:13:58.483Z,48.75
2019-01-24T18:16:38.999Z,46.50
2019-01-24T18:19:19.499Z,47.05
2019-01-24T18:22:00.260Z,44.35
2019-01-24T18:24:41.059Z,51.02
2019-01-24T18:27:23.087Z,44.93
2019-01-24T18:30:03.596Z,42.65
2019-01-24T18:32:44.372Z,50.67
2019-01-24T18:35:25.015Z,44.10
2019-01-24T18:38:05.664Z,44.25
2019-01-24T18:40:46.351Z,44.77
2019-01-24T18:43:27.459Z,46.37
2019-01-24T18:46:08.357Z,50.23
2019-01-24T18:48:49.057Z,42.73
2019-01-24T18:51:29.694Z,39.80
2019-01-24T18:54:10.227Z,42.43
2019-01-24T18:56:51.203Z,43.28
2019-01-24T18:59:31.803Z,39.70
2019-01-24T19:02:12.474Z,46.23
2019-01-24T19:04:53.239Z,44.30
2019-01-24T19:07:33.821Z,44.27
2019-01-24T19:10:14.553Z,37.65
2019-01-24T19:12:54.937Z,41.33
2019-01-24T19:15:35.715Z,42.08
2019-01-24T19:18:16.484Z,43.00
2019-01-24T19:20:57.327Z,45.70
2019-01-24T19:23:38.111Z,47.00
2019-01-24T19:26:18.590Z,44.03
2019-01-24T19:28:59.216Z,43.65
2019-01-24T19:31:39.523Z,45.50
2019-01-24T19:34:20.247Z,42.93
2019-01-24T19:37:00.796Z,42.30
2019-01-24T19:39:43.595Z,41.05
2019-01-24T19:42:24.143Z,47.73
2019-01-24T19:45:04.844Z,46.95
2019-01-24T19:47:45.627Z,45.28
2019-01-24T19:50:26.371Z,42.78
2019-01-24T19:53:07.185Z,42.55
2019-01-24T19:55:47.887Z,47.25
2019-01-24T19:58:28.622Z,39.50
2019-01-24T20:01:09.248Z,43.10
2019-01-24T20:03:50.316Z,43.90
2019-01-24T20:06:31.648Z,43.28
2019-01-24T20:09:13.351Z,42.62
2019-01-24T20:11:54.536Z,40.00
2019-01-24T20:14:36.126Z,38.58
2019-01-24T20:17:17.608Z,42.62
2019-01-24T20:19:59.154Z,40.92
2019-01-24T20:22:40.558Z,41.35
2019-01-24T20:25:23.184Z,47.30
2019-01-24T20:28:05.160Z,41.33
2019-01-24T20:30:47.539Z,45.03
2019-01-24T20:33:28.721Z,40.15
2019-01-24T20:36:09.988Z,41.88
2019-01-24T20:38:50.644Z,42.00
2019-01-24T20:41:31.584Z,35.90
2019-01-24T20:44:12.134Z,42.35
2019-01-24T20:46:52.891Z,44.67
2019-01-24T20:49:33.631Z,40.10
2019-01-24T20:52:14.455Z,42.58
2019-01-24T20:54:55.159Z,39.40
2019-01-24T20:57:35.856Z,44.70
2019-01-24T21:00:16.956Z,43.48
2019-01-24T21:02:57.722Z,40.15
2019-01-24T21:05:38.343Z,38.83
2019-01-24T21:08:19.131Z,50.48
2019-01-24T21:11:00.010Z,55.48
2019-01-24T21:13:40.651Z,49.40
2019-01-24T21:16:21.259Z,46.55
2019-01-24T21:19:01.937Z,54.95
2019-01-24T21:21:42.611Z,49.00
2019-01-24T21:24:23.385Z,52.62
2019-01-24T21:27:04.214Z,48.23
2019-01-24T21:29:44.803Z,47.23
2019-01-24T21:32:25.496Z,42.67
2019-01-24T21:35:05.995Z,46.45
2019-01-24T21:37:46.668Z,48.90
2019-01-24T21:40:27.556Z,48.75
2019-01-24T21:43:08.318Z,50.73
2019-01-24T21:45:48.913Z,51.18
2019-01-24T21:48:29.747Z,50.78
2019-01-24T21:51:11.323Z,45.95
2019-01-24T21:53:52.572Z,46.28
2019-01-24T21:56:33.255Z,49.98
2019-01-24T21:59:14.285Z,52.75
2019-01-24T22:01:54.944Z,54.30
2019-01-24T22:04:35.551Z,55.45
2019-01-24T22:07:16.178Z,53.58
2019-01-24T22:09:56.575Z,50.28
2019-01-24T22:12:36.923Z,58.52
2019-01-24T22:15:17.955Z,56.88
2019-01-24T22:17:58.598Z,59.42
2019-01-24T22:20:39.155Z,73.02
2019-01-24T22:23:19.571Z,61.20
2019-01-24T22:26:00.315Z,63.20
2019-01-24T22:28:40.759Z,67.82
2019-01-24T22:31:21.319Z,61.10
2019-01-24T22:34:02.047Z,68.33
2019-01-24T22:36:42.632Z,66.90
2019-01-24T22:39:23.007Z,65.52
2019-01-24T22:42:03.344Z,68.40
2019-01-24T22:44:45.404Z,61.37
2019-01-24T22:47:26.391Z,61.95
2019-01-24T22:50:06.695Z,61.90
2019-01-24T22:52:47.604Z,71.90
2019-01-24T22:55:30.260Z,56.98
2019-01-24T22:58:10.645Z,62.53
2019-01-24T23:00:55.194Z,59.65
2019-01-24T23:03:37.259Z,66.28
2019-01-24T23:06:17.648Z,60.20
2019-01-24T23:08:58.331Z,61.28
2019-01-24T23:11:39.012Z,51.77
2019-01-24T23:14:19.842Z,57.17
2019-01-24T23:17:00.682Z,55.55
2019-01-24T23:19:41.011Z,58.80
2019-01-24T23:22:21.699Z,57.00
2019-01-24T23:25:02.314Z,52.48
2019-01-24T23:27:43.068Z,52.93
2019-01-24T23:30:24.084Z,56.98
2019-01-24T23:33:04.635Z,55.05
2019-01-24T23:35:45.279Z,57.98
2019-01-24T23:38:25.780Z,49.18
2019-01-24T23:41:06.259Z,51.85
2019-01-24T23:43:46.943Z,51.23
2019-01-24T23:46:27.412Z,56.58
2019-01-24T23:49:08.071Z,50.17
2019-01-24T23:51:49.024Z,73.52
2019-01-24T23:54:30.099Z,53.42
2019-01-24T23:57:09.247Z,50.73
2019-01-24T23:59:57.256Z,53.23
